sensor_id;sensor_type;location;lat;lon;timestamp;P1;durP1;ratioP1;P2;durP2;ratioP2
78322;SDS011;67583;50.616;-3.404;2023-04-29T00:02:18;6.82;;;4.32;;
78322;SDS011;67583;50.616;-3.404;2023-04-29T00:04:43;6.55;;;3.95;;
78322;SDS011;67583;50.616;-3.404;2023-04-29T00:07:08;5.70;;;4.13;;
78322;SDS011;67583;50.616;-3.404;2023-04-29T00:09:34;6.95;;;3.78;;
78322;SDS011;67583;50.616;-3.404;2023-04-29T00:12:01;6.28;;;4.53;;
78322;SDS011;67583;50.616;-3.404;2023-04-29T00:14:27;6.57;;;4.07;;
78322;SDS011;67583;50.616;-3.404;2023-04-29T00:16:52;6.47;;;4.43;;
78322;SDS011;67583;50.616;-3.404;2023-04-29T00:19:17;7.72;;;5.22;;
78322;SDS011;67583;50.616;-3.404;2023-04-29T00:21:43;6.68;;;4.07;;
78322;SDS011;67583;50.616;-3.404;2023-04-29T00:24:09;6.78;;;5.07;;
78322;SDS011;67583;50.616;-3.404;2023-04-29T00:26:34;9.70;;;6.53;;
78322;SDS011;67583;50.616;-3.404;2023-04-29T00:29:00;8.73;;;6.85;;
78322;SDS011;67583;50.616;-3.404;2023-04-29T00:31:25;8.52;;;6.18;;
78322;SDS011;67583;50.616;-3.404;2023-04-29T00:33:51;12.32;;;6.93;;
78322;SDS011;67583;50.616;-3.404;2023-04-29T00:36:16;8.55;;;6.00;;
78322;SDS011;67583;50.616;-3.404;2023-04-29T00:38:41;11.48;;;7.70;;
78322;SDS011;67583;50.616;-3.404;2023-04-29T00:41:07;9.18;;;6.75;;
78322;SDS011;67583;50.616;-3.404;2023-04-29T00:43:33;10.98;;;7.88;;
78322;SDS011;67583;50.616;-3.404;2023-04-29T00:45:58;11.75;;;8.27;;
78322;SDS011;67583;50.616;-3.404;2023-04-29T00:48:24;11.50;;;7.93;;
78322;SDS011;67583;50.616;-3.404;2023-04-29T00:50:49;10.63;;;7.15;;
78322;SDS011;67583;50.616;-3.404;2023-04-29T00:53:15;12.10;;;7.18;;
78322;SDS011;67583;50.616;-3.404;2023-04-29T00:55:41;9.15;;;6.70;;
78322;SDS011;67583;50.616;-3.404;2023-04-29T00:58:08;9.07;;;6.95;;
78322;SDS011;67583;50.616;-3.404;2023-04-29T01:00:34;9.18;;;6.07;;
78322;SDS011;67583;50.616;-3.404;2023-04-29T01:03:01;8.93;;;6.75;;
78322;SDS011;67583;50.616;-3.404;2023-04-29T01:05:29;7.88;;;5.78;;
78322;SDS011;67583;50.616;-3.404;2023-04-29T01:08:12;7.57;;;5.13;;
78322;SDS011;67583;50.616;-3.404;2023-04-29T01:13:34;5.88;;;4.40;;
78322;SDS011;67583;50.616;-3.404;2023-04-29T01:16:10;10.05;;;5.70;;
78322;SDS011;67583;50.616;-3.404;2023-04-29T01:18:51;7.68;;;5.35;;
78322;SDS011;67583;50.616;-3.404;2023-04-29T01:21:19;8.10;;;5.30;;
78322;SDS011;67583;50.616;-3.404;2023-04-29T01:23:45;8.00;;;5.13;;
78322;SDS011;67583;50.616;-3.404;2023-04-29T01:26:10;8.27;;;5.43;;
78322;SDS011;67583;50.616;-3.404;2023-04-29T01:28:49;10.63;;;6.45;;
78322;SDS011;67583;50.616;-3.404;2023-04-29T01:31:46;7.78;;;5.13;;
78322;SDS011;67583;50.616;-3.404;2023-04-29T01:34:18;8.80;;;5.30;;
78322;SDS011;67583;50.616;-3.404;2023-04-29T01:37:08;8.02;;;6.00;;
78322;SDS011;67583;50.616;-3.404;2023-04-29T01:42:40;12.10;;;8.95;;
78322;SDS011;67583;50.616;-3.404;2023-04-29T01:45:10;10.38;;;8.02;;
78322;SDS011;67583;50.616;-3.404;2023-04-29T01:47:36;9.52;;;7.30;;
78322;SDS011;67583;50.616;-3.404;2023-04-29T01:50:02;11.70;;;8.23;;
78322;SDS011;67583;50.616;-3.404;2023-04-29T01:52:27;9.25;;;7.28;;
78322;SDS011;67583;50.616;-3.404;2023-04-29T01:54:53;12.18;;;9.25;;
78322;SDS011;67583;50.616;-3.404;2023-04-29T01:57:18;12.38;;;8.82;;
78322;SDS011;67583;50.616;-3.404;2023-04-29T01:59:44;13.30;;;10.20;;
78322;SDS011;67583;50.616;-3.404;2023-04-29T02:02:09;14.32;;;10.45;;
78322;SDS011;67583;50.616;-3.404;2023-04-29T02:04:34;14.13;;;10.73;;
78322;SDS011;67583;50.616;-3.404;2023-04-29T02:07:00;14.93;;;10.07;;
78322;SDS011;67583;50.616;-3.404;2023-04-29T02:09:25;9.65;;;7.53;;
78322;SDS011;67583;50.616;-3.404;2023-04-29T02:11:51;15.13;;;10.05;;
78322;SDS011;67583;50.616;-3.404;2023-04-29T02:14:17;9.90;;;7.40;;
78322;SDS011;67583;50.616;-3.404;2023-04-29T02:16:45;11.77;;;6.75;;
78322;SDS011;67583;50.616;-3.404;2023-04-29T02:19:10;10.68;;;6.78;;
78322;SDS011;67583;50.616;-3.404;2023-04-29T02:21:36;8.20;;;6.32;;
78322;SDS011;67583;50.616;-3.404;2023-04-29T02:24:03;9.93;;;6.63;;
78322;SDS011;67583;50.616;-3.404;2023-04-29T02:26:29;9.40;;;6.35;;
78322;SDS011;67583;50.616;-3.404;2023-04-29T02:28:55;10.60;;;7.15;;
78322;SDS011;67583;50.616;-3.404;2023-04-29T02:31:21;9.52;;;6.18;;
78322;SDS011;67583;50.616;-3.404;2023-04-29T02:33:46;10.85;;;7.43;;
78322;SDS011;67583;50.616;-3.404;2023-04-29T02:36:12;11.02;;;6.85;;
78322;SDS011;67583;50.616;-3.404;2023-04-29T02:41:03;13.07;;;7.90;;
78322;SDS011;67583;50.616;-3.404;2023-04-29T02:43:28;11.30;;;7.43;;
78322;SDS011;67583;50.616;-3.404;2023-04-29T02:45:57;11.27;;;6.85;;
78322;SDS011;67583;50.616;-3.404;2023-04-29T02:48:24;9.23;;;6.45;;
78322;SDS011;67583;50.616;-3.404;2023-04-29T02:50:49;12.35;;;7.60;;
78322;SDS011;67583;50.616;-3.404;2023-04-29T02:53:14;10.95;;;6.85;;
78322;SDS011;67583;50.616;-3.404;2023-04-29T02:55:40;12.40;;;7.85;;
78322;SDS011;67583;50.616;-3.404;2023-04-29T02:58:05;12.23;;;7.95;;
78322;SDS011;67583;50.616;-3.404;2023-04-29T03:00:31;11.70;;;7.68;;
78322;SDS011;67583;50.616;-3.404;2023-04-29T03:02:57;11.27;;;7.07;;
78322;SDS011;67583;50.616;-3.404;2023-04-29T03:05:22;11.55;;;6.95;;
78322;SDS011;67583;50.616;-3.404;2023-04-29T03:07:48;12.80;;;7.65;;
78322;SDS011;67583;50.616;-3.404;2023-04-29T03:10:13;11.70;;;7.32;;
78322;SDS011;67583;50.616;-3.404;2023-04-29T03:12:38;12.10;;;7.53;;
78322;SDS011;67583;50.616;-3.404;2023-04-29T03:15:07;12.38;;;8.30;;
78322;SDS011;67583;50.616;-3.404;2023-04-29T03:17:34;10.02;;;6.35;;
78322;SDS011;67583;50.616;-3.404;2023-04-29T03:20:00;11.63;;;7.47;;
78322;SDS011;67583;50.616;-3.404;2023-04-29T03:22:26;12.35;;;7.60;;
78322;SDS011;67583;50.616;-3.404;2023-04-29T03:27:17;9.87;;;6.07;;
78322;SDS011;67583;50.616;-3.404;2023-04-29T03:32:07;9.90;;;6.33;;
78322;SDS011;67583;50.616;-3.404;2023-04-29T03:36:58;14.48;;;7.15;;
78322;SDS011;67583;50.616;-3.404;2023-04-29T03:39:23;10.85;;;6.57;;
78322;SDS011;67583;50.616;-3.404;2023-04-29T03:44:15;10.32;;;5.70;;
78322;SDS011;67583;50.616;-3.404;2023-04-29T03:46:41;8.55;;;5.53;;
78322;SDS011;67583;50.616;-3.404;2023-04-29T03:49:07;9.15;;;5.70;;
78322;SDS011;67583;50.616;-3.404;2023-04-29T03:51:32;10.18;;;5.70;;
78322;SDS011;67583;50.616;-3.404;2023-04-29T03:53:57;8.55;;;5.18;;
78322;SDS011;67583;50.616;-3.404;2023-04-29T03:58:51;6.03;;;3.38;;
78322;SDS011;67583;50.616;-3.404;2023-04-29T04:01:17;6.13;;;4.15;;
78322;SDS011;67583;50.616;-3.404;2023-04-29T04:03:44;6.38;;;4.13;;
78322;SDS011;67583;50.616;-3.404;2023-04-29T04:06:10;13.05;;;4.82;;
78322;SDS011;67583;50.616;-3.404;2023-04-29T04:11:00;6.50;;;4.23;;
78322;SDS011;67583;50.616;-3.404;2023-04-29T04:13:29;6.25;;;4.03;;
78322;SDS011;67583;50.616;-3.404;2023-04-29T04:15:55;4.93;;;3.28;;
78322;SDS011;67583;50.616;-3.404;2023-04-29T04:18:21;6.32;;;3.72;;
78322;SDS011;67583;50.616;-3.404;2023-04-29T04:20:47;6.60;;;4.53;;
78322;SDS011;67583;50.616;-3.404;2023-04-29T04:23:12;5.38;;;3.60;;
78322;SDS011;67583;50.616;-3.404;2023-04-29T04:25:38;5.57;;;3.67;;
78322;SDS011;67583;50.616;-3.404;2023-04-29T04:28:08;7.13;;;3.80;;
78322;SDS011;67583;50.616;-3.404;2023-04-29T04:30:34;5.82;;;3.88;;
78322;SDS011;67583;50.616;-3.404;2023-04-29T04:33:00;6.47;;;4.20;;
78322;SDS011;67583;50.616;-3.404;2023-04-29T04:35:25;9.35;;;4.35;;
78322;SDS011;67583;50.616;-3.404;2023-04-29T04:37:51;6.18;;;4.30;;
78322;SDS011;67583;50.616;-3.404;2023-04-29T04:40:17;9.23;;;4.20;;
78322;SDS011;67583;50.616;-3.404;2023-04-29T04:42:43;9.43;;;5.38;;
78322;SDS011;67583;50.616;-3.404;2023-04-29T04:45:08;5.95;;;3.63;;
78322;SDS011;67583;50.616;-3.404;2023-04-29T04:47:35;7.22;;;3.53;;
78322;SDS011;67583;50.616;-3.404;2023-04-29T04:50:01;6.20;;;3.90;;
78322;SDS011;67583;50.616;-3.404;2023-04-29T04:52:28;7.47;;;4.45;;
78322;SDS011;67583;50.616;-3.404;2023-04-29T04:54:53;8.50;;;4.65;;
78322;SDS011;67583;50.616;-3.404;2023-04-29T04:59:44;6.47;;;4.20;;
78322;SDS011;67583;50.616;-3.404;2023-04-29T05:02:10;7.43;;;4.65;;
78322;SDS011;67583;50.616;-3.404;2023-04-29T05:07:01;7.95;;;5.18;;
78322;SDS011;67583;50.616;-3.404;2023-04-29T05:09:27;8.70;;;5.05;;
78322;SDS011;67583;50.616;-3.404;2023-04-29T05:11:52;9.63;;;5.60;;
78322;SDS011;67583;50.616;-3.404;2023-04-29T05:14:18;12.40;;;6.05;;
78322;SDS011;67583;50.616;-3.404;2023-04-29T05:16:43;8.70;;;5.72;;
78322;SDS011;67583;50.616;-3.404;2023-04-29T05:19:10;13.45;;;6.13;;
78322;SDS011;67583;50.616;-3.404;2023-04-29T05:21:36;11.60;;;6.45;;
78322;SDS011;67583;50.616;-3.404;2023-04-29T05:24:02;8.98;;;5.20;;
78322;SDS011;67583;50.616;-3.404;2023-04-29T05:26:30;9.75;;;5.47;;
78322;SDS011;67583;50.616;-3.404;2023-04-29T05:28:55;8.60;;;5.03;;
78322;SDS011;67583;50.616;-3.404;2023-04-29T05:33:47;7.13;;;4.32;;
78322;SDS011;67583;50.616;-3.404;2023-04-29T05:36:13;8.73;;;5.45;;
78322;SDS011;67583;50.616;-3.404;2023-04-29T05:38:39;9.02;;;5.72;;
78322;SDS011;67583;50.616;-3.404;2023-04-29T05:41:05;10.60;;;5.93;;
78322;SDS011;67583;50.616;-3.404;2023-04-29T05:43:31;13.70;;;6.10;;
78322;SDS011;67583;50.616;-3.404;2023-04-29T05:45:57;8.38;;;5.63;;
78322;SDS011;67583;50.616;-3.404;2023-04-29T05:48:23;9.27;;;5.55;;
78322;SDS011;67583;50.616;-3.404;2023-04-29T05:50:50;22.40;;;5.75;;
78322;SDS011;67583;50.616;-3.404;2023-04-29T05:53:18;10.10;;;5.85;;
78322;SDS011;67583;50.616;-3.404;2023-04-29T05:55:44;13.48;;;5.82;;
78322;SDS011;67583;50.616;-3.404;2023-04-29T05:58:12;9.75;;;5.10;;
78322;SDS011;67583;50.616;-3.404;2023-04-29T06:00:40;15.50;;;6.30;;
78322;SDS011;67583;50.616;-3.404;2023-04-29T06:03:05;6.93;;;4.68;;
78322;SDS011;67583;50.616;-3.404;2023-04-29T06:05:31;11.00;;;4.95;;
78322;SDS011;67583;50.616;-3.404;2023-04-29T06:07:56;12.00;;;4.90;;
78322;SDS011;67583;50.616;-3.404;2023-04-29T06:10:22;9.55;;;5.40;;
78322;SDS011;67583;50.616;-3.404;2023-04-29T06:12:47;8.77;;;4.72;;
78322;SDS011;67583;50.616;-3.404;2023-04-29T06:15:15;7.57;;;4.72;;
78322;SDS011;67583;50.616;-3.404;2023-04-29T06:17:41;8.68;;;5.38;;
78322;SDS011;67583;50.616;-3.404;2023-04-29T06:20:07;7.97;;;4.45;;
78322;SDS011;67583;50.616;-3.404;2023-04-29T06:22:33;13.00;;;6.32;;
78322;SDS011;67583;50.616;-3.404;2023-04-29T06:24:58;6.35;;;4.40;;
78322;SDS011;67583;50.616;-3.404;2023-04-29T06:27:24;5.40;;;3.67;;
78322;SDS011;67583;50.616;-3.404;2023-04-29T06:29:49;9.73;;;6.03;;
78322;SDS011;67583;50.616;-3.404;2023-04-29T06:32:15;6.90;;;4.65;;
78322;SDS011;67583;50.616;-3.404;2023-04-29T06:34:40;10.23;;;4.65;;
78322;SDS011;67583;50.616;-3.404;2023-04-29T06:37:05;7.78;;;3.92;;
78322;SDS011;67583;50.616;-3.404;2023-04-29T06:39:31;6.65;;;4.70;;
78322;SDS011;67583;50.616;-3.404;2023-04-29T06:41:56;6.45;;;4.32;;
78322;SDS011;67583;50.616;-3.404;2023-04-29T06:44:22;6.88;;;4.05;;
78322;SDS011;67583;50.616;-3.404;2023-04-29T06:46:48;7.85;;;4.30;;
78322;SDS011;67583;50.616;-3.404;2023-04-29T06:49:13;7.30;;;4.63;;
78322;SDS011;67583;50.616;-3.404;2023-04-29T06:51:39;5.28;;;4.30;;
78322;SDS011;67583;50.616;-3.404;2023-04-29T06:54:06;6.10;;;4.25;;
78322;SDS011;67583;50.616;-3.404;2023-04-29T06:56:32;7.18;;;4.60;;
78322;SDS011;67583;50.616;-3.404;2023-04-29T06:58:57;7.78;;;5.18;;
78322;SDS011;67583;50.616;-3.404;2023-04-29T07:01:22;8.05;;;5.53;;
78322;SDS011;67583;50.616;-3.404;2023-04-29T07:03:48;6.82;;;4.45;;
78322;SDS011;67583;50.616;-3.404;2023-04-29T07:06:13;6.15;;;4.53;;
78322;SDS011;67583;50.616;-3.404;2023-04-29T07:08:39;6.40;;;4.43;;
78322;SDS011;67583;50.616;-3.404;2023-04-29T07:11:04;10.25;;;5.22;;
78322;SDS011;67583;50.616;-3.404;2023-04-29T07:13:30;8.57;;;5.63;;
78322;SDS011;67583;50.616;-3.404;2023-04-29T07:15:55;9.63;;;5.55;;
78322;SDS011;67583;50.616;-3.404;2023-04-29T07:18:21;7.13;;;4.35;;
78322;SDS011;67583;50.616;-3.404;2023-04-29T07:20:46;7.97;;;5.57;;
78322;SDS011;67583;50.616;-3.404;2023-04-29T07:23:13;7.32;;;4.63;;
78322;SDS011;67583;50.616;-3.404;2023-04-29T07:25:39;6.07;;;4.22;;
78322;SDS011;67583;50.616;-3.404;2023-04-29T07:28:04;5.25;;;3.95;;
78322;SDS011;67583;50.616;-3.404;2023-04-29T07:30:30;5.68;;;3.80;;
78322;SDS011;67583;50.616;-3.404;2023-04-29T07:32:55;4.07;;;3.08;;
78322;SDS011;67583;50.616;-3.404;2023-04-29T07:35:21;4.32;;;3.38;;
78322;SDS011;67583;50.616;-3.404;2023-04-29T07:37:46;5.95;;;3.90;;
78322;SDS011;67583;50.616;-3.404;2023-04-29T07:40:12;5.30;;;3.83;;
78322;SDS011;67583;50.616;-3.404;2023-04-29T07:42:37;5.82;;;4.57;;
78322;SDS011;67583;50.616;-3.404;2023-04-29T07:45:03;4.93;;;3.80;;
78322;SDS011;67583;50.616;-3.404;2023-04-29T07:47:28;5.82;;;3.10;;
78322;SDS011;67583;50.616;-3.404;2023-04-29T07:49:54;4.13;;;3.03;;
78322;SDS011;67583;50.616;-3.404;2023-04-29T07:52:19;3.97;;;2.50;;
78322;SDS011;67583;50.616;-3.404;2023-04-29T07:54:45;4.35;;;3.17;;
78322;SDS011;67583;50.616;-3.404;2023-04-29T07:57:10;4.45;;;3.60;;
78322;SDS011;67583;50.616;-3.404;2023-04-29T07:59:36;4.57;;;2.72;;
78322;SDS011;67583;50.616;-3.404;2023-04-29T08:02:01;3.13;;;2.53;;
78322;SDS011;67583;50.616;-3.404;2023-04-29T08:04:26;4.10;;;2.70;;
78322;SDS011;67583;50.616;-3.404;2023-04-29T08:06:52;4.22;;;3.25;;
78322;SDS011;67583;50.616;-3.404;2023-04-29T08:09:17;3.78;;;2.83;;
78322;SDS011;67583;50.616;-3.404;2023-04-29T08:11:43;4.15;;;3.13;;
78322;SDS011;67583;50.616;-3.404;2023-04-29T08:14:09;4.97;;;2.67;;
78322;SDS011;67583;50.616;-3.404;2023-04-29T08:16:35;3.33;;;2.40;;
78322;SDS011;67583;50.616;-3.404;2023-04-29T08:19:03;3.38;;;1.90;;
78322;SDS011;67583;50.616;-3.404;2023-04-29T08:21:28;4.85;;;2.05;;
78322;SDS011;67583;50.616;-3.404;2023-04-29T08:23:56;2.22;;;1.40;;
78322;SDS011;67583;50.616;-3.404;2023-04-29T08:26:21;3.55;;;1.70;;
78322;SDS011;67583;50.616;-3.404;2023-04-29T08:28:47;4.28;;;1.98;;
78322;SDS011;67583;50.616;-3.404;2023-04-29T08:31:18;1.88;;;1.40;;
78322;SDS011;67583;50.616;-3.404;2023-04-29T08:33:44;1.65;;;1.33;;
78322;SDS011;67583;50.616;-3.404;2023-04-29T08:36:11;2.13;;;1.38;;
78322;SDS011;67583;50.616;-3.404;2023-04-29T08:38:37;1.95;;;1.38;;
78322;SDS011;67583;50.616;-3.404;2023-04-29T08:41:02;2.35;;;1.75;;
78322;SDS011;67583;50.616;-3.404;2023-04-29T08:43:27;3.50;;;1.83;;
78322;SDS011;67583;50.616;-3.404;2023-04-29T08:45:53;3.00;;;2.22;;
78322;SDS011;67583;50.616;-3.404;2023-04-29T08:48:19;2.88;;;2.03;;
78322;SDS011;67583;50.616;-3.404;2023-04-29T08:50:45;3.17;;;1.98;;
78322;SDS011;67583;50.616;-3.404;2023-04-29T08:53:11;3.30;;;2.30;;
78322;SDS011;67583;50.616;-3.404;2023-04-29T08:55:42;3.78;;;2.70;;
78322;SDS011;67583;50.616;-3.404;2023-04-29T08:58:09;3.53;;;2.55;;
78322;SDS011;67583;50.616;-3.404;2023-04-29T09:00:35;3.03;;;2.38;;
78322;SDS011;67583;50.616;-3.404;2023-04-29T09:03:03;3.88;;;2.50;;
78322;SDS011;67583;50.616;-3.404;2023-04-29T09:05:36;5.82;;;4.30;;
78322;SDS011;67583;50.616;-3.404;2023-04-29T09:08:02;8.43;;;4.47;;
78322;SDS011;67583;50.616;-3.404;2023-04-29T09:10:28;10.45;;;6.72;;
78322;SDS011;67583;50.616;-3.404;2023-04-29T09:12:57;10.55;;;6.80;;
78322;SDS011;67583;50.616;-3.404;2023-04-29T09:15:22;11.15;;;6.75;;
78322;SDS011;67583;50.616;-3.404;2023-04-29T09:17:48;10.07;;;6.05;;
78322;SDS011;67583;50.616;-3.404;2023-04-29T09:22:49;11.45;;;6.57;;
78322;SDS011;67583;50.616;-3.404;2023-04-29T09:25:21;11.95;;;7.10;;
78322;SDS011;67583;50.616;-3.404;2023-04-29T09:27:47;13.98;;;8.45;;
78322;SDS011;67583;50.616;-3.404;2023-04-29T09:30:12;11.38;;;7.40;;
78322;SDS011;67583;50.616;-3.404;2023-04-29T09:32:40;16.00;;;9.48;;
78322;SDS011;67583;50.616;-3.404;2023-04-29T09:35:25;13.70;;;8.55;;
78322;SDS011;67583;50.616;-3.404;2023-04-29T09:37:54;17.00;;;9.60;;
78322;SDS011;67583;50.616;-3.404;2023-04-29T09:40:35;14.82;;;8.45;;
78322;SDS011;67583;50.616;-3.404;2023-04-29T09:43:00;16.55;;;8.90;;
78322;SDS011;67583;50.616;-3.404;2023-04-29T09:48:02;16.48;;;10.18;;
78322;SDS011;67583;50.616;-3.404;2023-04-29T09:50:29;18.02;;;10.93;;
78322;SDS011;67583;50.616;-3.404;2023-04-29T09:52:55;17.20;;;10.93;;
78322;SDS011;67583;50.616;-3.404;2023-04-29T09:55:20;18.42;;;10.48;;
78322;SDS011;67583;50.616;-3.404;2023-04-29T09:57:46;18.42;;;10.13;;
78322;SDS011;67583;50.616;-3.404;2023-04-29T10:00:12;16.42;;;10.50;;
78322;SDS011;67583;50.616;-3.404;2023-04-29T10:02:42;17.13;;;9.88;;
78322;SDS011;67583;50.616;-3.404;2023-04-29T10:05:11;21.63;;;11.77;;
78322;SDS011;67583;50.616;-3.404;2023-04-29T10:07:38;18.90;;;10.75;;
78322;SDS011;67583;50.616;-3.404;2023-04-29T10:10:03;19.95;;;11.35;;
78322;SDS011;67583;50.616;-3.404;2023-04-29T10:12:30;21.05;;;12.40;;
78322;SDS011;67583;50.616;-3.404;2023-04-29T10:17:35;22.35;;;11.48;;
78322;SDS011;67583;50.616;-3.404;2023-04-29T10:20:04;22.42;;;11.48;;
78322;SDS011;67583;50.616;-3.404;2023-04-29T10:22:39;21.15;;;11.20;;
78322;SDS011;67583;50.616;-3.404;2023-04-29T10:25:13;19.45;;;11.57;;
78322;SDS011;67583;50.616;-3.404;2023-04-29T10:27:43;21.13;;;12.07;;
78322;SDS011;67583;50.616;-3.404;2023-04-29T10:30:12;24.85;;;12.48;;
78322;SDS011;67583;50.616;-3.404;2023-04-29T10:32:39;22.63;;;12.80;;
78322;SDS011;67583;50.616;-3.404;2023-04-29T10:35:09;21.05;;;13.02;;
78322;SDS011;67583;50.616;-3.404;2023-04-29T10:40:11;18.90;;;10.50;;
78322;SDS011;67583;50.616;-3.404;2023-04-29T10:50:28;23.08;;;14.10;;
78322;SDS011;67583;50.616;-3.404;2023-04-29T10:52:54;21.38;;;11.68;;
78322;SDS011;67583;50.616;-3.404;2023-04-29T10:55:21;20.00;;;11.88;;
78322;SDS011;67583;50.616;-3.404;2023-04-29T10:57:47;22.02;;;13.73;;
78322;SDS011;67583;50.616;-3.404;2023-04-29T11:00:26;21.23;;;12.95;;
78322;SDS011;67583;50.616;-3.404;2023-04-29T11:02:59;24.55;;;13.32;;
78322;SDS011;67583;50.616;-3.404;2023-04-29T11:05:35;17.23;;;12.15;;
78322;SDS011;67583;50.616;-3.404;2023-04-29T11:11:04;24.95;;;13.57;;
78322;SDS011;67583;50.616;-3.404;2023-04-29T11:13:31;20.63;;;11.98;;
78322;SDS011;67583;50.616;-3.404;2023-04-29T11:16:08;21.55;;;12.05;;
78322;SDS011;67583;50.616;-3.404;2023-04-29T11:18:35;16.35;;;10.35;;
78322;SDS011;67583;50.616;-3.404;2023-04-29T11:21:21;22.27;;;11.70;;
78322;SDS011;67583;50.616;-3.404;2023-04-29T11:23:48;18.08;;;10.90;;
78322;SDS011;67583;50.616;-3.404;2023-04-29T11:26:17;21.25;;;12.60;;
78322;SDS011;67583;50.616;-3.404;2023-04-29T11:28:43;21.80;;;13.02;;
78322;SDS011;67583;50.616;-3.404;2023-04-29T11:31:09;21.75;;;12.90;;
78322;SDS011;67583;50.616;-3.404;2023-04-29T11:33:34;20.77;;;12.32;;
78322;SDS011;67583;50.616;-3.404;2023-04-29T11:36:00;22.45;;;12.90;;
78322;SDS011;67583;50.616;-3.404;2023-04-29T11:38:29;25.70;;;12.05;;
78322;SDS011;67583;50.616;-3.404;2023-04-29T11:40:55;18.00;;;11.98;;
78322;SDS011;67583;50.616;-3.404;2023-04-29T11:43:24;20.83;;;13.05;;
78322;SDS011;67583;50.616;-3.404;2023-04-29T11:45:50;19.40;;;11.25;;
78322;SDS011;67583;50.616;-3.404;2023-04-29T11:48:23;22.23;;;12.80;;
78322;SDS011;67583;50.616;-3.404;2023-04-29T11:50:55;20.45;;;10.45;;
78322;SDS011;67583;50.616;-3.404;2023-04-29T11:53:23;16.98;;;11.63;;
78322;SDS011;67583;50.616;-3.404;2023-04-29T11:55:49;19.88;;;13.32;;
78322;SDS011;67583;50.616;-3.404;2023-04-29T11:58:17;22.27;;;11.27;;
78322;SDS011;67583;50.616;-3.404;2023-04-29T12:00:42;19.92;;;12.60;;
78322;SDS011;67583;50.616;-3.404;2023-04-29T12:03:19;17.95;;;11.25;;
78322;SDS011;67583;50.616;-3.404;2023-04-29T12:05:52;21.00;;;12.95;;
78322;SDS011;67583;50.616;-3.404;2023-04-29T12:08:25;20.73;;;13.02;;
78322;SDS011;67583;50.616;-3.404;2023-04-29T12:10:52;19.88;;;12.98;;
78322;SDS011;67583;50.616;-3.404;2023-04-29T12:13:22;18.38;;;12.23;;
78322;SDS011;67583;50.616;-3.404;2023-04-29T12:15:49;20.63;;;12.88;;
78322;SDS011;67583;50.616;-3.404;2023-04-29T12:18:15;19.92;;;11.60;;
78322;SDS011;67583;50.616;-3.404;2023-04-29T12:20:42;18.48;;;11.93;;
78322;SDS011;67583;50.616;-3.404;2023-04-29T12:23:12;18.58;;;12.55;;
78322;SDS011;67583;50.616;-3.404;2023-04-29T12:25:37;17.63;;;11.10;;
78322;SDS011;67583;50.616;-3.404;2023-04-29T12:28:03;18.88;;;12.43;;
78322;SDS011;67583;50.616;-3.404;2023-04-29T12:30:29;18.38;;;12.05;;
78322;SDS011;67583;50.616;-3.404;2023-04-29T12:32:54;24.05;;;12.20;;
78322;SDS011;67583;50.616;-3.404;2023-04-29T12:35:20;17.67;;;11.20;;
78322;SDS011;67583;50.616;-3.404;2023-04-29T12:37:49;17.27;;;10.50;;
78322;SDS011;67583;50.616;-3.404;2023-04-29T12:40:15;19.88;;;13.00;;
78322;SDS011;67583;50.616;-3.404;2023-04-29T12:42:41;18.13;;;11.70;;
78322;SDS011;67583;50.616;-3.404;2023-04-29T12:45:12;20.15;;;13.25;;
78322;SDS011;67583;50.616;-3.404;2023-04-29T12:50:19;25.05;;;12.60;;
78322;SDS011;67583;50.616;-3.404;2023-04-29T12:52:45;21.08;;;13.23;;
78322;SDS011;67583;50.616;-3.404;2023-04-29T12:55:10;15.65;;;11.18;;
78322;SDS011;67583;50.616;-3.404;2023-04-29T12:57:36;17.75;;;11.50;;
78322;SDS011;67583;50.616;-3.404;2023-04-29T13:00:03;21.40;;;13.52;;
78322;SDS011;67583;50.616;-3.404;2023-04-29T13:02:30;20.10;;;11.60;;
78322;SDS011;67583;50.616;-3.404;2023-04-29T13:04:56;20.25;;;13.48;;
78322;SDS011;67583;50.616;-3.404;2023-04-29T13:07:21;26.35;;;13.02;;
78322;SDS011;67583;50.616;-3.404;2023-04-29T13:09:47;21.75;;;12.23;;
78322;SDS011;67583;50.616;-3.404;2023-04-29T13:12:13;23.60;;;12.27;;
78322;SDS011;67583;50.616;-3.404;2023-04-29T13:14:38;26.48;;;14.65;;
78322;SDS011;67583;50.616;-3.404;2023-04-29T13:17:04;22.33;;;13.98;;
78322;SDS011;67583;50.616;-3.404;2023-04-29T13:19:30;17.33;;;12.18;;
78322;SDS011;67583;50.616;-3.404;2023-04-29T13:21:56;14.90;;;10.88;;
78322;SDS011;67583;50.616;-3.404;2023-04-29T13:24:22;17.58;;;11.50;;
78322;SDS011;67583;50.616;-3.404;2023-04-29T13:26:47;20.92;;;12.07;;
78322;SDS011;67583;50.616;-3.404;2023-04-29T13:29:13;18.75;;;12.52;;
78322;SDS011;67583;50.616;-3.404;2023-04-29T13:31:39;23.17;;;13.13;;
78322;SDS011;67583;50.616;-3.404;2023-04-29T13:34:04;18.92;;;12.15;;
78322;SDS011;67583;50.616;-3.404;2023-04-29T13:36:32;25.35;;;13.88;;
78322;SDS011;67583;50.616;-3.404;2023-04-29T13:38:57;26.60;;;13.82;;
78322;SDS011;67583;50.616;-3.404;2023-04-29T13:41:23;24.27;;;14.73;;
78322;SDS011;67583;50.616;-3.404;2023-04-29T13:43:49;23.52;;;13.90;;
78322;SDS011;67583;50.616;-3.404;2023-04-29T13:46:18;21.02;;;12.02;;
78322;SDS011;67583;50.616;-3.404;2023-04-29T13:48:43;21.55;;;12.75;;
78322;SDS011;67583;50.616;-3.404;2023-04-29T13:51:08;20.02;;;12.45;;
78322;SDS011;67583;50.616;-3.404;2023-04-29T13:53:35;19.85;;;12.98;;
78322;SDS011;67583;50.616;-3.404;2023-04-29T13:56:00;21.35;;;11.50;;
78322;SDS011;67583;50.616;-3.404;2023-04-29T13:58:25;18.52;;;12.02;;
78322;SDS011;67583;50.616;-3.404;2023-04-29T14:00:51;20.67;;;12.05;;
78322;SDS011;67583;50.616;-3.404;2023-04-29T14:03:16;23.95;;;13.90;;
78322;SDS011;67583;50.616;-3.404;2023-04-29T14:05:42;19.77;;;13.18;;
78322;SDS011;67583;50.616;-3.404;2023-04-29T14:08:08;21.88;;;13.15;;
78322;SDS011;67583;50.616;-3.404;2023-04-29T14:10:33;18.92;;;12.43;;
78322;SDS011;67583;50.616;-3.404;2023-04-29T14:13:00;19.67;;;11.15;;
78322;SDS011;67583;50.616;-3.404;2023-04-29T14:15:27;18.92;;;11.98;;
78322;SDS011;67583;50.616;-3.404;2023-04-29T14:17:52;20.23;;;12.93;;
78322;SDS011;67583;50.616;-3.404;2023-04-29T14:20:19;21.20;;;13.40;;
78322;SDS011;67583;50.616;-3.404;2023-04-29T14:22:45;19.77;;;13.90;;
78322;SDS011;67583;50.616;-3.404;2023-04-29T14:25:11;16.58;;;10.55;;
78322;SDS011;67583;50.616;-3.404;2023-04-29T14:27:38;19.85;;;12.10;;
78322;SDS011;67583;50.616;-3.404;2023-04-29T14:30:03;18.00;;;12.32;;
78322;SDS011;67583;50.616;-3.404;2023-04-29T14:32:29;16.67;;;11.95;;
78322;SDS011;67583;50.616;-3.404;2023-04-29T14:34:55;20.70;;;13.55;;
78322;SDS011;67583;50.616;-3.404;2023-04-29T14:37:20;24.85;;;14.05;;
78322;SDS011;67583;50.616;-3.404;2023-04-29T14:39:45;18.75;;;11.05;;
78322;SDS011;67583;50.616;-3.404;2023-04-29T14:42:11;22.55;;;13.52;;
78322;SDS011;67583;50.616;-3.404;2023-04-29T14:44:37;28.15;;;13.77;;
78322;SDS011;67583;50.616;-3.404;2023-04-29T14:47:03;20.88;;;13.60;;
78322;SDS011;67583;50.616;-3.404;2023-04-29T14:49:29;18.45;;;11.38;;
78322;SDS011;67583;50.616;-3.404;2023-04-29T14:51:54;18.75;;;12.75;;
78322;SDS011;67583;50.616;-3.404;2023-04-29T14:54:20;18.73;;;11.82;;
78322;SDS011;67583;50.616;-3.404;2023-04-29T14:56:45;20.30;;;12.50;;
78322;SDS011;67583;50.616;-3.404;2023-04-29T14:59:10;20.65;;;14.55;;
78322;SDS011;67583;50.616;-3.404;2023-04-29T15:01:36;24.30;;;13.93;;
78322;SDS011;67583;50.616;-3.404;2023-04-29T15:04:03;24.38;;;13.98;;
78322;SDS011;67583;50.616;-3.404;2023-04-29T15:06:29;21.92;;;13.85;;
78322;SDS011;67583;50.616;-3.404;2023-04-29T15:08:55;24.13;;;14.32;;
78322;SDS011;67583;50.616;-3.404;2023-04-29T15:11:21;18.80;;;12.27;;
78322;SDS011;67583;50.616;-3.404;2023-04-29T15:13:47;22.80;;;14.07;;
78322;SDS011;67583;50.616;-3.404;2023-04-29T15:16:12;24.30;;;13.45;;